sensor_id;sensor_type;location;lat;lon;timestamp;pressure;altitude;pressure_sealevel;temperature;humidity
52032;BME280;38044;45.148;39.604;2023-12-04T00:02:22;101112.28;;;9.27;85.57
52032;BME280;38044;45.148;39.604;2023-12-04T00:04:48;101126.50;;;9.32;85.76
52032;BME280;38044;45.148;39.604;2023-12-04T00:07:14;101109.06;;;9.19;85.97
52032;BME280;38044;45.148;39.604;2023-12-04T00:09:40;101127.31;;;9.28;86.12
52032;BME280;38044;45.148;39.604;2023-12-04T00:12:06;101111.22;;;9.22;86.31
52032;BME280;38044;45.148;39.604;2023-12-04T00:14:32;101109.06;;;9.14;86.40
52032;BME280;38044;45.148;39.604;2023-12-04T00:16:58;101115.78;;;9.22;86.00
52032;BME280;38044;45.148;39.604;2023-12-04T00:19:24;101121.94;;;9.22;85.91
52032;BME280;38044;45.148;39.604;2023-12-04T00:21:51;101117.38;;;9.18;85.62
52032;BME280;38044;45.148;39.604;2023-12-04T00:24:17;101123.81;;;9.17;85.67
52032;BME280;38044;45.148;39.604;2023-12-04T00:26:42;101110.69;;;9.10;85.90
52032;BME280;38044;45.148;39.604;2023-12-04T00:29:08;101119.53;;;9.16;85.83
52032;BME280;38044;45.148;39.604;2023-12-04T00:31:34;101125.16;;;9.14;85.91
52032;BME280;38044;45.148;39.604;2023-12-04T00:34:00;101127.28;;;9.12;86.07
52032;BME280;38044;45.148;39.604;2023-12-04T00:36:26;101124.63;;;9.07;85.97
52032;BME280;38044;45.148;39.604;2023-12-04T00:38:52;101116.31;;;9.09;86.25
52032;BME280;38044;45.148;39.604;2023-12-04T00:41:18;101110.41;;;9.12;86.44
52032;BME280;38044;45.148;39.604;2023-12-04T00:43:44;101116.03;;;9.20;86.24
52032;BME280;38044;45.148;39.604;2023-12-04T00:46:10;101087.59;;;9.09;86.20
52032;BME280;38044;45.148;39.604;2023-12-04T00:48:36;101096.97;;;9.07;85.97
52032;BME280;38044;45.148;39.604;2023-12-04T00:51:02;101078.50;;;9.05;86.29
52032;BME280;38044;45.148;39.604;2023-12-04T00:53:28;101100.50;;;9.22;86.38
52032;BME280;38044;45.148;39.604;2023-12-04T00:55:54;101096.22;;;9.21;85.95
52032;BME280;38044;45.148;39.604;2023-12-04T00:58:20;101075.28;;;9.13;84.99
52032;BME280;38044;45.148;39.604;2023-12-04T01:00:45;101091.38;;;9.34;85.79
52032;BME280;38044;45.148;39.604;2023-12-04T01:03:14;101099.41;;;9.29;86.33
52032;BME280;38044;45.148;39.604;2023-12-04T01:05:40;101097.81;;;9.28;87.22
52032;BME280;38044;45.148;39.604;2023-12-04T01:08:06;101086.00;;;9.08;86.61
52032;BME280;38044;45.148;39.604;2023-12-04T01:10:32;101076.06;;;9.03;86.13
52032;BME280;38044;45.148;39.604;2023-12-04T01:12:57;101095.66;;;9.09;86.21
52032;BME280;38044;45.148;39.604;2023-12-04T01:15:23;101108.50;;;8.97;86.13
52032;BME280;38044;45.148;39.604;2023-12-04T01:17:49;101114.91;;;8.80;85.90
52032;BME280;38044;45.148;39.604;2023-12-04T01:20:15;101101.50;;;8.75;86.33
52032;BME280;38044;45.148;39.604;2023-12-04T01:22:41;101102.28;;;8.66;86.63
52032;BME280;38044;45.148;39.604;2023-12-04T01:25:08;101093.41;;;8.50;86.63
52032;BME280;38044;45.148;39.604;2023-12-04T01:27:34;101103.91;;;8.62;86.78
52032;BME280;38044;45.148;39.604;2023-12-04T01:30:01;101086.47;;;8.59;87.87
52032;BME280;38044;45.148;39.604;2023-12-04T01:32:27;101113.28;;;8.59;87.99
52032;BME280;38044;45.148;39.604;2023-12-04T01:34:53;101111.84;;;8.41;86.67
52032;BME280;38044;45.148;39.604;2023-12-04T01:37:19;101116.16;;;8.42;86.07
52032;BME280;38044;45.148;39.604;2023-12-04T01:39:45;101135.75;;;8.48;87.61
52032;BME280;38044;45.148;39.604;2023-12-04T01:42:10;101126.38;;;8.50;88.46
52032;BME280;38044;45.148;39.604;2023-12-04T01:44:36;101126.66;;;8.54;87.61
52032;BME280;38044;45.148;39.604;2023-12-04T01:47:03;101120.72;;;8.52;88.02
52032;BME280;38044;45.148;39.604;2023-12-04T01:49:30;101115.16;;;8.59;89.31
52032;BME280;38044;45.148;39.604;2023-12-04T01:51:56;101133.91;;;8.59;88.28
52032;BME280;38044;45.148;39.604;2023-12-04T01:54:22;101116.91;;;8.38;87.02
52032;BME280;38044;45.148;39.604;2023-12-04T01:56:48;101141.06;;;8.43;86.87
52032;BME280;38044;45.148;39.604;2023-12-04T01:59:15;101137.91;;;8.56;88.60
52032;BME280;38044;45.148;39.604;2023-12-04T02:01:42;101142.25;;;8.67;89.60
52032;BME280;38044;45.148;39.604;2023-12-04T02:04:08;101148.09;;;8.59;89.02
52032;BME280;38044;45.148;39.604;2023-12-04T02:06:34;101147.34;;;8.74;88.55
52032;BME280;38044;45.148;39.604;2023-12-04T02:09:01;101159.44;;;8.92;89.17
52032;BME280;38044;45.148;39.604;2023-12-04T02:11:27;101153.03;;;8.98;88.84
52032;BME280;38044;45.148;39.604;2023-12-04T02:13:53;101154.63;;;9.04;88.25
52032;BME280;38044;45.148;39.604;2023-12-04T02:16:19;101149.81;;;9.06;88.05
52032;BME280;38044;45.148;39.604;2023-12-04T02:18:49;101127.28;;;8.97;87.52
52032;BME280;38044;45.148;39.604;2023-12-04T02:21:16;101147.41;;;9.05;87.72
52032;BME280;38044;45.148;39.604;2023-12-04T02:23:42;101136.16;;;9.08;87.90
52032;BME280;38044;45.148;39.604;2023-12-04T02:26:15;101143.41;;;9.22;88.59
52032;BME280;38044;45.148;39.604;2023-12-04T02:28:46;101142.88;;;9.25;88.21
52032;BME280;38044;45.148;39.604;2023-12-04T02:31:15;101134.81;;;9.41;87.33
52032;BME280;38044;45.148;39.604;2023-12-04T02:33:43;101126.78;;;9.25;87.64
52032;BME280;38044;45.148;39.604;2023-12-04T02:36:12;101108.53;;;9.17;88.29
52032;BME280;38044;45.148;39.604;2023-12-04T02:38:39;101120.31;;;9.27;88.42
52032;BME280;38044;45.148;39.604;2023-12-04T02:41:05;101134.81;;;9.25;88.88
52032;BME280;38044;45.148;39.604;2023-12-04T02:43:31;101130.25;;;9.26;89.91
52032;BME280;38044;45.148;39.604;2023-12-04T02:45:59;101116.31;;;9.19;90.16
52032;BME280;38044;45.148;39.604;2023-12-04T02:48:24;101142.63;;;9.27;90.07
52032;BME280;38044;45.148;39.604;2023-12-04T02:50:50;101153.31;;;9.32;90.93
52032;BME280;38044;45.148;39.604;2023-12-04T02:53:16;101153.34;;;9.37;91.54
52032;BME280;38044;45.148;39.604;2023-12-04T02:55:42;101142.88;;;9.46;91.60
52032;BME280;38044;45.148;39.604;2023-12-04T02:58:08;101145.56;;;9.31;91.64
52032;BME280;38044;45.148;39.604;2023-12-04T03:00:34;101164.34;;;9.46;92.03
52032;BME280;38044;45.148;39.604;2023-12-04T03:03:00;101150.94;;;9.31;92.33
52032;BME280;38044;45.148;39.604;2023-12-04T03:05:26;101159.22;;;9.29;92.95
52032;BME280;38044;45.148;39.604;2023-12-04T03:07:52;101178.31;;;9.48;93.30
52032;BME280;38044;45.148;39.604;2023-12-04T03:10:18;101175.63;;;9.53;93.26
52032;BME280;38044;45.148;39.604;2023-12-04T03:12:44;101171.31;;;9.52;93.30
52032;BME280;38044;45.148;39.604;2023-12-04T03:15:10;101170.78;;;9.65;93.47
52032;BME280;38044;45.148;39.604;2023-12-04T03:17:37;101160.31;;;9.74;92.96
52032;BME280;38044;45.148;39.604;2023-12-04T03:20:06;101173.97;;;9.73;93.13
52032;BME280;38044;45.148;39.604;2023-12-04T03:22:36;101164.59;;;9.75;93.59
52032;BME280;38044;45.148;39.604;2023-12-04T03:25:02;101156.53;;;9.75;93.41
52032;BME280;38044;45.148;39.604;2023-12-04T03:27:28;101153.06;;;9.80;93.30
52032;BME280;38044;45.148;39.604;2023-12-04T03:29:54;101156.28;;;9.77;93.43
52032;BME280;38044;45.148;39.604;2023-12-04T03:32:20;101162.72;;;9.70;93.31
52032;BME280;38044;45.148;39.604;2023-12-04T03:34:46;101173.47;;;9.65;93.90
52032;BME280;38044;45.148;39.604;2023-12-04T03:37:12;101159.53;;;9.53;94.92
52032;BME280;38044;45.148;39.604;2023-12-04T03:39:37;101177.75;;;9.61;95.56
52032;BME280;38044;45.148;39.604;2023-12-04T03:42:06;101176.16;;;9.60;96.39
52032;BME280;38044;45.148;39.604;2023-12-04T03:44:37;101178.81;;;9.55;96.20
52032;BME280;38044;45.148;39.604;2023-12-04T03:47:03;101184.75;;;9.42;95.81
52032;BME280;38044;45.148;39.604;2023-12-04T03:49:29;101183.66;;;9.38;96.22
52032;BME280;38044;45.148;39.604;2023-12-04T03:51:55;101190.09;;;9.52;96.33
52032;BME280;38044;45.148;39.604;2023-12-04T03:54:21;101191.16;;;9.61;96.44
52032;BME280;38044;45.148;39.604;2023-12-04T03:56:47;101191.72;;;9.74;95.89
52032;BME280;38044;45.148;39.604;2023-12-04T03:59:13;101189.56;;;9.86;95.81
52032;BME280;38044;45.148;39.604;2023-12-04T04:01:39;101190.91;;;9.78;95.10
52032;BME280;38044;45.148;39.604;2023-12-04T04:04:04;101184.72;;;9.73;94.49
52032;BME280;38044;45.148;39.604;2023-12-04T04:06:30;101192.25;;;9.81;94.48
52032;BME280;38044;45.148;39.604;2023-12-04T04:08:56;101198.16;;;9.67;93.99
52032;BME280;38044;45.148;39.604;2023-12-04T04:11:22;101191.44;;;9.55;94.39
52032;BME280;38044;45.148;39.604;2023-12-04T04:13:48;101211.03;;;9.45;94.26
52032;BME280;38044;45.148;39.604;2023-12-04T04:16:15;101197.09;;;9.48;95.32
52032;BME280;38044;45.148;39.604;2023-12-04T04:18:42;101199.75;;;9.38;95.30
52032;BME280;38044;45.148;39.604;2023-12-04T04:21:09;101207.28;;;9.46;95.34
52032;BME280;38044;45.148;39.604;2023-12-04T04:23:35;101204.59;;;9.51;95.77
52032;BME280;38044;45.148;39.604;2023-12-04T04:26:01;101209.69;;;9.58;95.65
52032;BME280;38044;45.148;39.604;2023-12-04T04:28:28;101207.00;;;9.58;94.99
52032;BME280;38044;45.148;39.604;2023-12-04T04:30:53;101181.25;;;9.46;94.62
52032;BME280;38044;45.148;39.604;2023-12-04T04:33:19;101188.25;;;9.47;94.04
52032;BME280;38044;45.148;39.604;2023-12-04T04:35:45;101177.50;;;9.42;94.05
52032;BME280;38044;45.148;39.604;2023-12-04T04:38:11;101200.56;;;9.48;93.98
52032;BME280;38044;45.148;39.604;2023-12-04T04:40:37;101191.19;;;9.36;94.36
52032;BME280;38044;45.148;39.604;2023-12-04T04:43:08;101212.38;;;9.42;94.59
52032;BME280;38044;45.148;39.604;2023-12-04T04:45:34;101206.19;;;9.32;95.05
52032;BME280;38044;45.148;39.604;2023-12-04T04:47:59;101216.41;;;9.40;95.23
52032;BME280;38044;45.148;39.604;2023-12-04T04:50:25;101221.78;;;9.45;95.22
52032;BME280;38044;45.148;39.604;2023-12-04T04:52:51;101234.38;;;9.39;95.37
52032;BME280;38044;45.148;39.604;2023-12-04T04:55:17;101239.72;;;9.29;95.35
52032;BME280;38044;45.148;39.604;2023-12-04T04:57:43;101226.81;;;9.21;96.13
52032;BME280;38044;45.148;39.604;2023-12-04T05:00:09;101248.09;;;9.48;96.49
52032;BME280;38044;45.148;39.604;2023-12-04T05:02:35;101248.09;;;9.53;96.51
52032;BME280;38044;45.148;39.604;2023-12-04T05:05:03;101245.97;;;9.70;96.51
52032;BME280;38044;45.148;39.604;2023-12-04T05:07:29;101252.13;;;9.71;95.44
52032;BME280;38044;45.148;39.604;2023-12-04T05:09:55;101243.78;;;9.78;95.58
52032;BME280;38044;45.148;39.604;2023-12-04T05:12:21;101235.22;;;9.91;95.26
52032;BME280;38044;45.148;39.604;2023-12-04T05:14:47;101243.53;;;10.00;94.99
52032;BME280;38044;45.148;39.604;2023-12-04T05:17:12;101242.72;;;9.99;94.38
52032;BME280;38044;45.148;39.604;2023-12-04T05:19:38;101251.84;;;10.08;94.38
52032;BME280;38044;45.148;39.604;2023-12-04T05:22:04;101263.09;;;10.15;94.19
52032;BME280;38044;45.148;39.604;2023-12-04T05:24:30;101255.84;;;10.21;93.49
52032;BME280;38044;45.148;39.604;2023-12-04T05:26:56;101269.56;;;10.30;93.01
52032;BME280;38044;45.148;39.604;2023-12-04T05:29:22;101272.25;;;10.40;92.31
52032;BME280;38044;45.148;39.604;2023-12-04T05:31:48;101270.09;;;10.42;91.82
52032;BME280;38044;45.148;39.604;2023-12-04T05:34:13;101261.50;;;10.45;91.05
52032;BME280;38044;45.148;39.604;2023-12-04T05:36:39;101268.97;;;10.58;91.07
52032;BME280;38044;45.148;39.604;2023-12-04T05:39:05;101257.41;;;10.53;90.54
52032;BME280;38044;45.148;39.604;2023-12-04T05:41:31;101261.97;;;10.63;90.56
52032;BME280;38044;45.148;39.604;2023-12-04T05:43:57;101260.38;;;10.62;89.94
52032;BME280;38044;45.148;39.604;2023-12-04T05:46:23;101239.44;;;10.48;89.50
52032;BME280;38044;45.148;39.604;2023-12-04T05:48:49;101258.75;;;10.55;89.75
52032;BME280;38044;45.148;39.604;2023-12-04T05:51:14;101261.50;;;10.45;89.83
52032;BME280;38044;45.148;39.604;2023-12-04T05:53:41;101267.66;;;10.56;90.01
52032;BME280;38044;45.148;39.604;2023-12-04T05:56:07;101273.03;;;10.56;89.96
52032;BME280;38044;45.148;39.604;2023-12-04T05:58:34;101263.63;;;10.53;89.97
52032;BME280;38044;45.148;39.604;2023-12-04T06:01:01;101264.69;;;10.52;89.49
52032;BME280;38044;45.148;39.604;2023-12-04T06:03:27;101253.13;;;10.47;89.17
52032;BME280;38044;45.148;39.604;2023-12-04T06:05:52;101264.19;;;10.40;89.51
52032;BME280;38044;45.148;39.604;2023-12-04T06:08:18;101258.28;;;10.33;89.44
52032;BME280;38044;45.148;39.604;2023-12-04T06:10:46;101275.47;;;10.47;90.05
52032;BME280;38044;45.148;39.604;2023-12-04T06:13:12;101254.28;;;10.30;89.68
52032;BME280;38044;45.148;39.604;2023-12-04T06:15:37;101244.88;;;10.28;89.84
52032;BME280;38044;45.148;39.604;2023-12-04T06:18:03;101268.50;;;10.31;90.10
52032;BME280;38044;45.148;39.604;2023-12-04T06:20:30;101252.91;;;10.18;90.36
52032;BME280;38044;45.148;39.604;2023-12-04T06:22:56;101254.50;;;10.24;90.70
52032;BME280;38044;45.148;39.604;2023-12-04T06:25:22;101281.38;;;10.44;90.73
52032;BME280;38044;45.148;39.604;2023-12-04T06:27:48;101286.22;;;10.47;90.36
52032;BME280;38044;45.148;39.604;2023-12-04T06:30:15;101293.19;;;10.53;90.34
52032;BME280;38044;45.148;39.604;2023-12-04T06:32:41;101294.78;;;10.65;90.28
52032;BME280;38044;45.148;39.604;2023-12-04T06:35:07;101284.00;;;10.70;89.68
52032;BME280;38044;45.148;39.604;2023-12-04T06:37:34;101299.56;;;10.83;89.39
52032;BME280;38044;45.148;39.604;2023-12-04T06:40:02;101288.47;;;10.95;89.53
52032;BME280;38044;45.148;39.604;2023-12-04T06:42:28;101277.38;;;11.12;88.98
52032;BME280;38044;45.148;39.604;2023-12-04T06:44:54;101291.28;;;11.29;88.42
52032;BME280;38044;45.148;39.604;2023-12-04T06:47:23;101286.88;;;11.43;87.94
52032;BME280;38044;45.148;39.604;2023-12-04T06:49:49;101287.25;;;11.71;86.92
52032;BME280;38044;45.148;39.604;2023-12-04T06:52:14;101299.81;;;12.20;85.10
52032;BME280;38044;45.148;39.604;2023-12-04T06:54:40;101289.66;;;12.65;83.65
52032;BME280;38044;45.148;39.604;2023-12-04T06:57:06;101304.56;;;12.81;81.83
52032;BME280;38044;45.148;39.604;2023-12-04T06:59:32;101295.84;;;12.90;80.73
52032;BME280;38044;45.148;39.604;2023-12-04T07:01:58;101303.03;;;13.18;79.49
52032;BME280;38044;45.148;39.604;2023-12-04T07:04:24;101309.88;;;13.35;78.71
52032;BME280;38044;45.148;39.604;2023-12-04T07:06:50;101312.59;;;13.35;77.94
52032;BME280;38044;45.148;39.604;2023-12-04T07:09:16;101321.84;;;13.28;79.97
52032;BME280;38044;45.148;39.604;2023-12-04T07:11:42;101323.75;;;13.04;79.99
52032;BME280;38044;45.148;39.604;2023-12-04T07:14:09;101331.69;;;12.71;79.85
52032;BME280;38044;45.148;39.604;2023-12-04T07:16:42;101331.31;;;12.54;81.25
52032;BME280;38044;45.148;39.604;2023-12-04T07:19:09;101338.53;;;12.29;81.79
52032;BME280;38044;45.148;39.604;2023-12-04T07:21:35;101338.66;;;12.19;82.64
52032;BME280;38044;45.148;39.604;2023-12-04T07:24:02;101346.75;;;12.19;82.71
52032;BME280;38044;45.148;39.604;2023-12-04T07:26:28;101355.69;;;12.09;83.29
52032;BME280;38044;45.148;39.604;2023-12-04T07:28:54;101364.34;;;12.06;84.03
52032;BME280;38044;45.148;39.604;2023-12-04T07:31:19;101375.91;;;12.07;84.18
52032;BME280;38044;45.148;39.604;2023-12-04T07:33:45;101361.16;;;11.99;83.93
52032;BME280;38044;45.148;39.604;2023-12-04T07:36:11;101348.56;;;11.89;84.13
52032;BME280;38044;45.148;39.604;2023-12-04T07:38:37;101373.22;;;12.07;84.67
52032;BME280;38044;45.148;39.604;2023-12-04T07:41:03;101364.91;;;12.03;84.76
52032;BME280;38044;45.148;39.604;2023-12-04T07:43:29;101368.19;;;11.95;84.94
52032;BME280;38044;45.148;39.604;2023-12-04T07:45:55;101376.00;;;11.97;85.50
52032;BME280;38044;45.148;39.604;2023-12-04T07:48:22;101365.78;;;11.93;85.27
52032;BME280;38044;45.148;39.604;2023-12-04T07:50:47;101366.88;;;11.87;85.52
52032;BME280;38044;45.148;39.604;2023-12-04T07:53:13;101359.09;;;11.86;85.85
52032;BME280;38044;45.148;39.604;2023-12-04T07:55:39;101369.31;;;11.84;85.90
52032;BME280;38044;45.148;39.604;2023-12-04T07:58:05;101369.59;;;11.82;85.89
52032;BME280;38044;45.148;39.604;2023-12-04T08:00:31;101373.91;;;11.83;86.21
52032;BME280;38044;45.148;39.604;2023-12-04T08:02:57;101369.09;;;11.75;85.86
52032;BME280;38044;45.148;39.604;2023-12-04T08:05:23;101369.16;;;11.65;86.27
52032;BME280;38044;45.148;39.604;2023-12-04T08:07:48;101372.16;;;11.53;86.52
52032;BME280;38044;45.148;39.604;2023-12-04T08:10:14;101351.47;;;11.48;86.72
52032;BME280;38044;45.148;39.604;2023-12-04T08:12:44;101365.41;;;11.61;86.46
52032;BME280;38044;45.148;39.604;2023-12-04T08:15:11;101357.75;;;11.34;85.95
52032;BME280;38044;45.148;39.604;2023-12-04T08:17:36;101341.97;;;11.12;86.02
52032;BME280;38044;45.148;39.604;2023-12-04T08:20:03;101354.34;;;11.08;86.37
52032;BME280;38044;45.148;39.604;2023-12-04T08:22:29;101356.28;;;10.81;86.40
52032;BME280;38044;45.148;39.604;2023-12-04T08:24:55;101373.25;;;10.77;85.80
52032;BME280;38044;45.148;39.604;2023-12-04T08:27:21;101376.50;;;10.64;86.14
52032;BME280;38044;45.148;39.604;2023-12-04T08:29:47;101379.75;;;10.45;86.02
52032;BME280;38044;45.148;39.604;2023-12-04T08:32:12;101394.53;;;10.43;86.05
52032;BME280;38044;45.148;39.604;2023-12-04T08:34:38;101400.19;;;10.31;86.58
52032;BME280;38044;45.148;39.604;2023-12-04T08:37:04;101395.84;;;10.14;86.40
52032;BME280;38044;45.148;39.604;2023-12-04T08:39:30;101402.78;;;9.95;86.34
52032;BME280;38044;45.148;39.604;2023-12-04T08:42:01;101410.31;;;9.88;87.48
52032;BME280;38044;45.148;39.604;2023-12-04T08:44:27;101396.25;;;9.60;87.27
52032;BME280;38044;45.148;39.604;2023-12-04T08:46:53;101405.63;;;9.53;87.74
52032;BME280;38044;45.148;39.604;2023-12-04T08:49:19;101397.84;;;9.51;88.59
52032;BME280;38044;45.148;39.604;2023-12-04T08:51:45;101397.78;;;9.36;88.95
52032;BME280;38044;45.148;39.604;2023-12-04T08:54:11;101394.59;;;9.44;89.16
52032;BME280;38044;45.148;39.604;2023-12-04T08:56:37;101386.25;;;9.40;89.25
52032;BME280;38044;45.148;39.604;2023-12-04T08:59:03;101409.13;;;9.58;88.96
52032;BME280;38044;45.148;39.604;2023-12-04T09:01:29;101390.56;;;9.46;88.86
52032;BME280;38044;45.148;39.604;2023-12-04T09:03:55;101392.94;;;9.38;88.62
52032;BME280;38044;45.148;39.604;2023-12-04T09:06:21;101404.25;;;9.45;88.67
52032;BME280;38044;45.148;39.604;2023-12-04T09:08:47;101380.34;;;9.33;88.45
52032;BME280;38044;45.148;39.604;2023-12-04T09:11:13;101384.38;;;9.36;88.41
52032;BME280;38044;45.148;39.604;2023-12-04T09:13:39;101387.91;;;9.52;89.01
52032;BME280;38044;45.148;39.604;2023-12-04T09:16:06;101402.44;;;9.66;88.52
52032;BME280;38044;45.148;39.604;2023-12-04T09:18:32;101400.00;;;9.54;87.58
52032;BME280;38044;45.148;39.604;2023-12-04T09:20:58;101406.91;;;9.35;87.81
52032;BME280;38044;45.148;39.604;2023-12-04T09:23:24;101409.03;;;9.28;88.21
52032;BME280;38044;45.148;39.604;2023-12-04T09:25:50;101425.97;;;9.38;88.14
52032;BME280;38044;45.148;39.604;2023-12-04T09:28:16;101429.22;;;9.45;87.49
52032;BME280;38044;45.148;39.604;2023-12-04T09:30:42;101413.94;;;9.51;86.27
52032;BME280;38044;45.148;39.604;2023-12-04T09:33:09;101418.81;;;9.59;85.81
52032;BME280;38044;45.148;39.604;2023-12-04T09:35:34;101424.72;;;9.61;85.31
52032;BME280;38044;45.148;39.604;2023-12-04T09:38:00;101425.81;;;9.76;84.53
52032;BME280;38044;45.148;39.604;2023-12-04T09:40:27;101415.06;;;9.65;83.41
52032;BME280;38044;45.148;39.604;2023-12-04T09:42:53;101432.25;;;9.59;82.89
52032;BME280;38044;45.148;39.604;2023-12-04T09:45:20;101431.19;;;9.65;82.34
52032;BME280;38044;45.148;39.604;2023-12-04T09:47:48;101442.19;;;9.69;81.99
52032;BME280;38044;45.148;39.604;2023-12-04T09:50:15;101447.56;;;9.69;81.91
52032;BME280;38044;45.148;39.604;2023-12-04T09:52:42;101440.88;;;9.72;81.69
52032;BME280;38044;45.148;39.604;2023-12-04T09:55:09;101447.34;;;9.81;82.07
52032;BME280;38044;45.148;39.604;2023-12-04T09:57:37;101449.53;;;9.94;82.15
52032;BME280;38044;45.148;39.604;2023-12-04T10:00:04;101444.69;;;9.91;81.67
52032;BME280;38044;45.148;39.604;2023-12-04T10:02:32;101439.25;;;9.76;80.50
52032;BME280;38044;45.148;39.604;2023-12-04T10:04:58;101455.69;;;9.89;81.21
52032;BME280;38044;45.148;39.604;2023-12-04T10:07:24;101441.94;;;9.76;80.48
52032;BME280;38044;45.148;39.604;2023-12-04T10:09:50;101456.97;;;9.72;79.75
52032;BME280;38044;45.148;39.604;2023-12-04T10:12:19;101441.41;;;9.74;79.19
52032;BME280;38044;45.148;39.604;2023-12-04T10:17:37;101453.47;;;9.66;78.65
52032;BME280;38044;45.148;39.604;2023-12-04T10:20:13;101442.75;;;9.71;78.61
52032;BME280;38044;45.148;39.604;2023-12-04T10:23:02;101452.16;;;9.84;77.31
52032;BME280;38044;45.148;39.604;2023-12-04T10:25:30;101458.59;;;9.67;77.09
52032;BME280;38044;45.148;39.604;2023-12-04T10:28:11;101467.72;;;9.72;77.19
52032;BME280;38044;45.148;39.604;2023-12-04T10:30:38;101461.66;;;9.39;76.25
52032;BME280;38044;45.148;39.604;2023-12-04T10:33:06;101476.25;;;9.63;76.94
52032;BME280;38044;45.148;39.604;2023-12-04T10:35:34;101465.44;;;9.43;75.73
52032;BME280;38044;45.148;39.604;2023-12-04T10:38:05;101456.00;;;9.30;75.81
52032;BME280;38044;45.148;39.604;2023-12-04T10:40:33;101468.88;;;9.33;75.23
52032;BME280;38044;45.148;39.604;2023-12-04T10:43:19;101468.16;;;9.48;75.10
52032;BME280;38044;45.148;39.604;2023-12-04T10:45:46;101472.81;;;9.20;74.51
52032;BME280;38044;45.148;39.604;2023-12-04T10:48:15;101461.41;;;8.98;75.90
52032;BME280;38044;45.148;39.604;2023-12-04T10:50:44;101473.28;;;9.07;76.83
52032;BME280;38044;45.148;39.604;2023-12-04T10:53:11;101460.28;;;8.89;77.02
52032;BME280;38044;45.148;39.604;2023-12-04T10:55:39;101466.25;;;9.01;77.67
52032;BME280;38044;45.148;39.604;2023-12-04T10:58:07;101470.00;;;9.00;78.08
52032;BME280;38044;45.148;39.604;2023-12-04T11:00:35;101471.94;;;9.10;78.15
52032;BME280;38044;45.148;39.604;2023-12-04T11:03:08;101463.19;;;9.24;78.03
52032;BME280;38044;45.148;39.604;2023-12-04T11:05:39;101463.75;;;9.32;78.13
52032;BME280;38044;45.148;39.604;2023-12-04T11:08:16;101469.72;;;9.39;77.83
52032;BME280;38044;45.148;39.604;2023-12-04T11:10:54;101462.16;;;9.31;77.72
52032;BME280;38044;45.148;39.604;2023-12-04T11:13:26;101455.69;;;9.21;77.50
52032;BME280;38044;45.148;39.604;2023-12-04T11:15:59;101463.47;;;9.28;77.27
52032;BME280;38044;45.148;39.604;2023-12-04T11:18:27;101452.91;;;9.11;76.62
52032;BME280;38044;45.148;39.604;2023-12-04T11:21:05;101457.47;;;9.11;77.79
52032;BME280;38044;45.148;39.604;2023-12-04T11:23:33;101436.09;;;8.84;77.87
52032;BME280;38044;45.148;39.604;2023-12-04T11:26:00;101458.22;;;9.01;77.80
52032;BME280;38044;45.148;39.604;2023-12-04T11:28:28;101461.50;;;9.08;77.34
52032;BME280;38044;45.148;39.604;2023-12-04T11:30:56;101476.22;;;9.06;76.68
52032;BME280;38044;45.148;39.604;2023-12-04T11:33:22;101482.63;;;8.99;76.83
52032;BME280;38044;45.148;39.604;2023-12-04T11:35:50;101477.41;;;8.83;77.00
52032;BME280;38044;45.148;39.604;2023-12-04T11:38:19;101471.47;;;8.80;77.69
52032;BME280;38044;45.148;39.604;2023-12-04T11:40:48;101474.66;;;8.77;77.76
52032;BME280;38044;45.148;39.604;2023-12-04T11:43:27;101483.84;;;8.87;77.85
52032;BME280;38044;45.148;39.604;2023-12-04T11:46:24;101499.47;;;8.95;77.70
52032;BME280;38044;45.148;39.604;2023-12-04T11:48:54;101502.09;;;8.90;78.26
52032;BME280;38044;45.148;39.604;2023-12-04T11:54:07;101505.38;;;8.97;77.93
52032;BME280;38044;45.148;39.604;2023-12-04T11:56:34;101505.44;;;9.02;77.76
52032;BME280;38044;45.148;39.604;2023-12-04T11:59:07;101498.47;;;9.06;77.81
52032;BME280;38044;45.148;39.604;2023-12-04T12:01:35;101508.16;;;9.07;78.02
52032;BME280;38044;45.148;39.604;2023-12-04T12:04:02;101499.28;;;9.07;77.77
52032;BME280;38044;45.148;39.604;2023-12-04T12:06:30;101481.66;;;9.16;77.04
52032;BME280;38044;45.148;39.604;2023-12-04T12:08:56;101497.56;;;9.33;76.49
52032;BME280;38044;45.148;39.604;2023-12-04T12:11:23;101501.38;;;9.37;76.04
52032;BME280;38044;45.148;39.604;2023-12-04T12:13:50;101516.69;;;9.41;76.15
52032;BME280;38044;45.148;39.604;2023-12-04T12:16:18;101510.56;;;9.51;75.73
52032;BME280;38044;45.148;39.604;2023-12-04T12:18:44;101502.44;;;9.41;75.43
52032;BME280;38044;45.148;39.604;2023-12-04T12:21:10;101515.19;;;9.18;74.39
52032;BME280;38044;45.148;39.604;2023-12-04T12:23:36;101523.41;;;9.01;75.18
52032;BME280;38044;45.148;39.604;2023-12-04T12:26:02;101524.56;;;8.78;75.62
52032;BME280;38044;45.148;39.604;2023-12-04T12:28:29;101528.00;;;8.47;76.04
52032;BME280;38044;45.148;39.604;2023-12-04T12:30:55;101541.38;;;8.42;76.73
52032;BME280;38044;45.148;39.604;2023-12-04T12:33:22;101545.81;;;8.36;76.45
52032;BME280;38044;45.148;39.604;2023-12-04T12:35:49;101550.56;;;8.29;76.36
52032;BME280;38044;45.148;39.604;2023-12-04T12:38:15;101556.06;;;8.17;76.76
52032;BME280;38044;45.148;39.604;2023-12-04T12:40:42;101554.94;;;8.13;76.02
52032;BME280;38044;45.148;39.604;2023-12-04T12:43:09;101562.28;;;8.01;76.37
52032;BME280;38044;45.148;39.604;2023-12-04T12:45:41;101560.66;;;8.00;76.78
52032;BME280;38044;45.148;39.604;2023-12-04T12:48:15;101557.00;;;8.06;76.72
52032;BME280;38044;45.148;39.604;2023-12-04T12:50:42;101555.25;;;7.95;76.22
52032;BME280;38044;45.148;39.604;2023-12-04T12:53:11;101575.16;;;8.04;75.78